createdAt,value
2022-10-18T00:02:03.552Z,22.03
2022-10-18T00:05:27.421Z,22.17
2022-10-18T00:08:51.460Z,22.61
2022-10-18T00:12:15.479Z,22.88
2022-10-18T00:15:38.408Z,21.94
2022-10-18T00:19:02.426Z,22.51
2022-10-18T00:22:26.512Z,22.73
2022-10-18T00:25:50.503Z,22.29
2022-10-18T00:29:17.454Z,20.84
2022-10-18T00:32:41.482Z,22.51
2022-10-18T00:36:04.421Z,21.68
2022-10-18T00:39:31.439Z,21.04
2022-10-18T00:42:54.468Z,21.78
2022-10-18T00:46:18.487Z,21.94
2022-10-18T00:49:48.421Z,21.95
2022-10-18T00:53:14.485Z,21.98
2022-10-18T00:56:38.463Z,22.17
2022-10-18T01:00:02.474Z,23.12
2022-10-18T01:03:26.469Z,22.88
2022-10-18T01:10:32.461Z,22.84
2022-10-18T01:14:38.462Z,22.61
2022-10-18T01:18:20.496Z,22.67
2022-10-18T01:21:50.514Z,23.70
2022-10-18T01:25:52.458Z,22.59
2022-10-18T01:29:28.484Z,22.21
2022-10-18T01:33:02.524Z,21.50
2022-10-18T01:36:44.437Z,22.05
2022-10-18T01:40:11.488Z,21.78
2022-10-18T01:43:36.457Z,21.26
2022-10-18T01:46:59.533Z,22.55
2022-10-18T01:50:23.484Z,22.45
2022-10-18T01:53:49.479Z,22.13
2022-10-18T01:57:52.522Z,22.27
2022-10-18T02:01:46.511Z,21.35
2022-10-18T02:05:19.505Z,21.07
2022-10-18T02:08:46.461Z,21.18
2022-10-18T02:12:10.507Z,20.55
2022-10-18T02:15:37.567Z,20.00
2022-10-18T02:19:13.581Z,20.40
2022-10-18T02:22:39.546Z,19.78
2022-10-18T02:26:04.462Z,19.93
2022-10-18T02:29:28.534Z,19.89
2022-10-18T02:32:58.515Z,19.22
2022-10-18T02:36:52.528Z,19.27
2022-10-18T02:40:15.522Z,19.38
2022-10-18T02:43:39.529Z,19.04
2022-10-18T02:47:02.643Z,19.07
2022-10-18T02:50:27.469Z,19.41
2022-10-18T02:53:51.574Z,19.97
2022-10-18T02:57:16.529Z,19.13
2022-10-18T03:00:40.555Z,19.56
2022-10-18T03:04:04.493Z,19.26
2022-10-18T03:07:28.647Z,19.02
2022-10-18T03:10:53.570Z,18.94
2022-10-18T03:14:17.478Z,19.25
2022-10-18T03:17:41.626Z,19.71
2022-10-18T03:21:05.532Z,19.78
2022-10-18T03:24:29.572Z,18.28
2022-10-18T03:27:53.526Z,18.20
2022-10-18T03:31:19.550Z,17.99
2022-10-18T03:34:47.466Z,18.16
2022-10-18T03:38:12.631Z,18.50
2022-10-18T03:41:36.486Z,18.13
2022-10-18T03:45:00.537Z,18.63
2022-10-18T03:48:24.571Z,18.87
2022-10-18T03:51:47.536Z,19.11
2022-10-18T03:55:12.560Z,19.07
2022-10-18T03:58:36.551Z,19.09
2022-10-18T04:01:55.625Z,19.73
2022-10-18T04:05:19.584Z,19.20
2022-10-18T04:08:44.563Z,18.64
2022-10-18T04:12:07.585Z,18.78
2022-10-18T04:15:25.552Z,18.34
2022-10-18T04:18:50.541Z,18.51
2022-10-18T04:22:14.522Z,18.81
2022-10-18T04:25:38.573Z,18.70
2022-10-18T04:29:02.636Z,18.82
2022-10-18T04:32:26.549Z,18.91
2022-10-18T04:35:50.627Z,18.32
2022-10-18T04:39:14.631Z,18.12
2022-10-18T04:42:38.543Z,18.02
2022-10-18T04:46:02.559Z,18.11
2022-10-18T04:49:26.577Z,18.16
2022-10-18T04:56:12.260Z,17.80
2022-10-18T04:59:29.611Z,17.60
2022-10-18T05:02:52.653Z,17.84
2022-10-18T05:06:17.589Z,17.97
2022-10-18T05:09:41.572Z,18.51
2022-10-18T05:13:05.599Z,17.74
2022-10-18T05:16:29.577Z,17.85
2022-10-18T05:19:52.593Z,17.38
2022-10-18T05:23:18.562Z,17.62
2022-10-18T05:26:42.625Z,17.64
2022-10-18T05:30:06.558Z,17.44
2022-10-18T05:33:23.625Z,17.35
2022-10-18T05:36:47.590Z,17.03
2022-10-18T05:40:11.732Z,16.99
2022-10-18T05:43:35.589Z,16.62
2022-10-18T05:46:59.620Z,16.55
2022-10-18T05:50:23.591Z,16.45
2022-10-18T05:53:47.630Z,16.51
2022-10-18T05:57:04.621Z,16.62
2022-10-18T06:00:28.617Z,16.36
2022-10-18T06:03:52.742Z,15.83
2022-10-18T06:07:15.623Z,15.89
2022-10-18T06:10:39.623Z,15.81
2022-10-18T06:14:09.601Z,15.69
2022-10-18T06:17:34.132Z,15.52
2022-10-18T06:20:58.588Z,15.43
2022-10-18T06:24:22.626Z,15.29
2022-10-18T06:27:42.645Z,15.16
2022-10-18T06:31:06.601Z,15.20
2022-10-18T06:34:29.630Z,15.11
2022-10-18T06:37:54.601Z,15.08
2022-10-18T06:41:19.653Z,15.02
2022-10-18T06:44:44.597Z,14.90
2022-10-18T06:48:08.696Z,14.86
2022-10-18T06:51:32.635Z,14.83
2022-10-18T06:54:56.635Z,14.87
2022-10-18T06:58:14.182Z,14.73
2022-10-18T07:01:31.685Z,14.62
2022-10-18T07:04:56.152Z,14.81
2022-10-18T07:08:20.654Z,14.79
2022-10-18T07:11:44.661Z,14.63
2022-10-18T07:15:09.548Z,14.57
2022-10-18T07:18:33.652Z,14.57
2022-10-18T07:21:57.666Z,14.53
2022-10-18T07:25:21.641Z,14.55
2022-10-18T07:28:46.720Z,14.35
2022-10-18T07:32:10.639Z,14.47
2022-10-18T07:35:33.690Z,14.49
2022-10-18T07:38:57.636Z,14.46
2022-10-18T07:42:20.651Z,14.46
2022-10-18T07:45:44.633Z,14.42
2022-10-18T07:49:07.662Z,14.48
2022-10-18T07:52:31.665Z,14.34
2022-10-18T07:55:55.718Z,14.37
2022-10-18T07:59:13.758Z,14.26
2022-10-18T08:02:32.735Z,14.40
2022-10-18T08:05:56.620Z,14.18
2022-10-18T08:09:20.664Z,14.18
2022-10-18T08:12:44.683Z,14.40
2022-10-18T08:16:40.679Z,14.25
2022-10-18T08:20:12.234Z,14.21
2022-10-18T08:23:48.631Z,14.18
2022-10-18T08:27:12.694Z,14.28
2022-10-18T08:30:35.632Z,14.17
2022-10-18T08:33:59.683Z,14.23
2022-10-18T08:37:23.694Z,14.07
2022-10-18T08:40:48.662Z,14.15
2022-10-18T08:44:20.779Z,14.14
2022-10-18T08:47:57.657Z,14.37
2022-10-18T08:51:26.696Z,14.20
2022-10-18T08:55:02.638Z,14.12
2022-10-18T08:58:46.676Z,14.11
2022-10-18T09:02:36.714Z,14.00
2022-10-18T09:06:25.670Z,14.01
2022-10-18T09:10:03.709Z,13.95
2022-10-18T09:13:40.706Z,13.92
2022-10-18T09:17:16.025Z,14.06
2022-10-18T09:21:05.723Z,13.87
2022-10-18T09:24:29.649Z,13.80
2022-10-18T09:28:14.672Z,13.89
2022-10-18T09:32:14.690Z,13.81
2022-10-18T09:35:48.676Z,13.70
2022-10-18T09:39:16.635Z,13.79
2022-10-18T09:42:49.691Z,13.68
2022-10-18T09:46:13.629Z,13.70
2022-10-18T09:50:08.675Z,13.82
2022-10-18T09:53:52.656Z,13.59
2022-10-18T09:57:30.929Z,13.49
2022-10-18T10:01:02.692Z,13.36
2022-10-18T10:04:26.729Z,13.46
2022-10-18T10:07:55.654Z,13.46
2022-10-18T10:11:19.688Z,13.46
2022-10-18T10:14:44.657Z,13.36
2022-10-18T10:18:16.733Z,13.37
2022-10-18T10:21:39.706Z,13.28
2022-10-18T10:25:08.703Z,13.31
2022-10-18T10:28:37.762Z,13.39
2022-10-18T10:32:01.723Z,13.30
2022-10-18T10:35:53.228Z,13.13
2022-10-18T10:39:27.701Z,13.22
2022-10-18T10:43:18.399Z,13.05
2022-10-18T10:46:51.748Z,13.20
2022-10-18T10:50:25.704Z,13.08
2022-10-18T10:54:04.770Z,13.11
2022-10-18T10:57:28.701Z,12.88
2022-10-18T11:00:54.714Z,13.00
2022-10-18T11:04:39.705Z,12.76
2022-10-18T11:08:04.832Z,12.81
2022-10-18T11:11:41.757Z,12.79
2022-10-18T11:15:26.759Z,12.79
2022-10-18T11:18:52.722Z,12.54
2022-10-18T11:22:20.748Z,12.63
2022-10-18T11:26:18.731Z,12.52
2022-10-18T11:30:04.747Z,12.48
2022-10-18T11:34:07.794Z,12.41
2022-10-18T11:37:51.768Z,12.23
2022-10-18T11:41:47.766Z,12.41
2022-10-18T11:45:14.762Z,12.23
2022-10-18T11:49:09.687Z,12.15
2022-10-18T11:52:43.733Z,12.31
2022-10-18T11:56:32.720Z,12.53
2022-10-18T12:00:20.752Z,12.39
2022-10-18T12:03:58.751Z,12.54
2022-10-18T12:07:27.774Z,12.48
2022-10-18T12:11:07.963Z,12.39
2022-10-18T12:14:51.692Z,12.67
2022-10-18T12:18:20.789Z,12.61
2022-10-18T12:21:48.730Z,12.54
2022-10-18T12:25:11.751Z,12.32
2022-10-18T12:28:53.735Z,12.34
2022-10-18T12:32:36.781Z,12.21
2022-10-18T12:36:22.735Z,12.34
2022-10-18T12:40:09.393Z,12.20
2022-10-18T12:43:45.762Z,12.38
2022-10-18T12:47:11.773Z,12.13
2022-10-18T12:50:51.719Z,12.12
2022-10-18T12:54:18.766Z,11.94
2022-10-18T12:58:08.752Z,12.14
2022-10-18T13:01:25.831Z,12.15
2022-10-18T13:04:49.776Z,12.20
2022-10-18T13:08:42.742Z,12.23
2022-10-18T13:12:11.758Z,12.11
2022-10-18T13:15:46.761Z,12.33
2022-10-18T13:19:13.719Z,12.48
2022-10-18T13:22:57.805Z,12.51
2022-10-18T13:26:33.788Z,12.36
2022-10-18T13:30:25.798Z,12.51
2022-10-18T13:33:50.746Z,12.33
2022-10-18T13:37:39.732Z,12.30
2022-10-18T13:41:18.833Z,12.39
2022-10-18T13:44:52.722Z,12.54
2022-10-18T13:48:43.825Z,12.77
2022-10-18T13:52:34.128Z,12.73
2022-10-18T13:56:20.768Z,12.40
2022-10-18T13:59:56.781Z,12.67
2022-10-18T14:03:58.696Z,12.64
2022-10-18T14:07:22.769Z,12.52
2022-10-18T14:11:10.763Z,12.52
2022-10-18T14:14:52.797Z,12.53
2022-10-18T14:18:42.766Z,12.40
2022-10-18T14:22:27.740Z,12.19
2022-10-18T14:25:52.816Z,12.05
2022-10-18T14:29:21.840Z,11.62
2022-10-18T14:32:47.734Z,11.81
2022-10-18T14:36:46.792Z,11.82
2022-10-18T14:40:10.800Z,11.64
2022-10-18T14:43:34.792Z,11.42
2022-10-18T14:47:07.868Z,11.66
2022-10-18T14:50:40.759Z,11.64
2022-10-18T14:54:04.915Z,11.59
2022-10-18T14:57:38.754Z,11.40
2022-10-18T15:01:02.891Z,11.47
2022-10-18T15:04:28.634Z,11.51
2022-10-18T15:07:51.882Z,11.61
2022-10-18T15:11:15.784Z,11.68
2022-10-18T15:14:41.828Z,11.65
2022-10-18T15:18:05.838Z,11.65
2022-10-18T15:21:39.815Z,11.63
2022-10-18T15:25:38.846Z,11.47
2022-10-18T15:29:07.066Z,11.30
2022-10-18T15:32:39.959Z,11.47
2022-10-18T15:36:03.767Z,11.60
2022-10-18T15:39:34.812Z,11.48
2022-10-18T15:42:58.779Z,11.47
2022-10-18T15:46:41.867Z,12.21
2022-10-18T15:50:07.771Z,12.06
2022-10-18T15:53:37.856Z,11.96
2022-10-18T15:57:01.819Z,11.83
2022-10-18T16:00:33.814Z,11.82
2022-10-18T16:03:57.808Z,12.13
2022-10-18T16:07:20.833Z,12.38
2022-10-18T16:10:45.841Z,12.13
2022-10-18T16:14:02.422Z,11.91
2022-10-18T16:17:24.843Z,11.67
2022-10-18T16:20:48.837Z,11.59
2022-10-18T16:24:12.853Z,11.86
2022-10-18T16:27:36.839Z,11.69
2022-10-18T16:31:09.946Z,11.82
2022-10-18T16:34:34.822Z,12.00
2022-10-18T16:37:58.872Z,11.97
2022-10-18T16:41:23.803Z,11.85
2022-10-18T16:44:47.858Z,11.94
2022-10-18T16:48:13.831Z,11.81
2022-10-18T16:51:31.887Z,11.61
2022-10-18T16:54:55.844Z,11.38
2022-10-18T16:58:19.933Z,11.15
2022-10-18T17:01:43.901Z,11.27
2022-10-18T17:05:08.861Z,11.25
2022-10-18T17:08:40.881Z,11.57
2022-10-18T17:12:05.825Z,11.72
2022-10-18T17:15:32.815Z,11.76
2022-10-18T17:18:58.820Z,11.80
2022-10-18T17:22:22.877Z,11.99
2022-10-18T17:25:59.113Z,11.96
2022-10-18T17:29:29.826Z,11.90
2022-10-18T17:32:55.364Z,11.64
2022-10-18T17:36:18.867Z,11.67
2022-10-18T17:39:42.809Z,11.55
2022-10-18T17:43:06.867Z,11.52
2022-10-18T17:46:31.823Z,11.49
2022-10-18T17:49:55.857Z,11.61
2022-10-18T17:53:20.853Z,11.70
2022-10-18T17:56:44.896Z,11.80
2022-10-18T18:00:10.863Z,11.82
2022-10-18T18:03:33.923Z,11.99
2022-10-18T18:07:00.818Z,12.07
2022-10-18T18:10:23.923Z,12.09
2022-10-18T18:13:47.871Z,12.27
2022-10-18T18:17:10.906Z,12.45
2022-10-18T18:20:34.906Z,12.59
2022-10-18T18:23:57.844Z,12.80
2022-10-18T18:27:21.855Z,12.70
2022-10-18T18:30:44.876Z,12.96
2022-10-18T18:34:10.856Z,13.00
2022-10-18T18:37:33.901Z,13.12
2022-10-18T18:40:56.849Z,13.37
2022-10-18T18:44:20.879Z,13.67
2022-10-18T18:47:44.874Z,13.62
2022-10-18T18:51:08.835Z,13.74
2022-10-18T18:54:32.919Z,14.00
2022-10-18T18:57:56.890Z,14.13
2022-10-18T19:01:28.000Z,14.55
2022-10-18T19:04:51.883Z,14.68
2022-10-18T19:08:16.922Z,14.82
2022-10-18T19:11:40.890Z,14.94
2022-10-18T19:15:04.887Z,14.75
2022-10-18T19:18:23.911Z,15.18
2022-10-18T19:21:43.926Z,15.28
2022-10-18T19:25:07.895Z,15.51
2022-10-18T19:28:31.945Z,15.46
2022-10-18T19:31:55.884Z,15.67
2022-10-18T19:35:18.901Z,15.99
2022-10-18T19:38:42.850Z,15.97
2022-10-18T19:42:10.912Z,16.17
2022-10-18T19:45:34.887Z,16.61
2022-10-18T19:48:57.914Z,15.89
2022-10-18T19:52:21.854Z,16.38
2022-10-18T19:55:48.956Z,16.93
2022-10-18T19:59:12.890Z,16.32
2022-10-18T20:02:36.947Z,16.14
2022-10-18T20:06:00.911Z,16.59
2022-10-18T20:09:28.877Z,17.39
2022-10-18T20:12:52.918Z,17.45
2022-10-18T20:16:23.062Z,17.22
2022-10-18T20:19:49.969Z,17.23
2022-10-18T20:23:13.921Z,16.34
2022-10-18T20:26:38.993Z,16.92
2022-10-18T20:30:03.726Z,17.21
2022-10-18T20:33:29.910Z,17.77
2022-10-18T20:36:53.922Z,17.95
2022-10-18T20:40:17.915Z,16.99
2022-10-18T20:43:41.956Z,16.58
2022-10-18T20:47:05.906Z,16.24
2022-10-18T20:50:30.902Z,16.12
2022-10-18T20:53:55.003Z,16.07
2022-10-18T20:57:19.955Z,16.88
2022-10-18T21:00:43.935Z,17.76
2022-10-18T21:04:09.937Z,18.23
2022-10-18T21:07:34.072Z,17.33
2022-10-18T21:10:58.928Z,16.73
2022-10-18T21:14:26.889Z,16.39
2022-10-18T21:17:50.945Z,17.72
2022-10-18T21:21:31.968Z,18.33
2022-10-18T21:24:56.910Z,18.17
2022-10-18T21:28:21.016Z,18.15
2022-10-18T21:31:46.968Z,18.58
2022-10-18T21:35:10.943Z,19.16
2022-10-18T21:38:33.968Z,18.39
2022-10-18T21:41:57.930Z,18.27
2022-10-18T21:45:21.918Z,18.20
2022-10-18T21:48:45.966Z,17.23
2022-10-18T21:52:12.989Z,18.71
2022-10-18T21:55:36.962Z,17.67
2022-10-18T21:58:59.995Z,19.35
2022-10-18T22:02:23.917Z,19.38
2022-10-18T22:05:46.994Z,19.62
2022-10-18T22:09:13.898Z,19.22
2022-10-18T22:12:37.996Z,18.72
2022-10-18T22:16:02.979Z,19.54
2022-10-18T22:19:26.962Z,19.30
2022-10-18T22:22:44.567Z,18.92
2022-10-18T22:26:01.948Z,18.33
2022-10-18T22:29:30.925Z,18.05
2022-10-18T22:32:56.006Z,17.26
2022-10-18T22:36:19.992Z,17.95
2022-10-18T22:39:44.993Z,18.12
2022-10-18T22:43:07.983Z,18.99
2022-10-18T22:46:32.004Z,20.09
2022-10-18T22:49:57.011Z,19.39
2022-10-18T22:53:20.977Z,19.07
2022-10-18T22:56:45.020Z,18.86
2022-10-18T23:00:08.978Z,18.05
2022-10-18T23:03:32.943Z,18.26
2022-10-18T23:06:56.011Z,18.16
2022-10-18T23:10:18.986Z,18.48
2022-10-18T23:13:43.004Z,19.01
2022-10-18T23:17:06.012Z,18.71
2022-10-18T23:20:30.002Z,18.98
2022-10-18T23:23:49.576Z,19.34
2022-10-18T23:27:07.026Z,19.60
2022-10-18T23:30:29.950Z,19.90
2022-10-18T23:33:54.971Z,19.01
2022-10-18T23:37:20.004Z,18.64
2022-10-18T23:40:44.046Z,18.71
2022-10-18T23:44:07.998Z,18.93
2022-10-18T23:47:33.250Z,18.65
2022-10-18T23:50:58.034Z,19.85
2022-10-18T23:54:21.965Z,20.21
2022-10-18T23:57:46.075Z,18.75
